Time;durP1;ratioP1;P1;durP2;ratioP2;P2;SDS_P1;SDS_P2;PMS_P1;PMS_P2;Temp;Humidity;BMP_temperature;BMP_pressure;BME280_temperature;BME280_humidity;BME280_pressure;Samples;Min_cycle;Max_cycle;Signal;HPM_P1;HPM_P2
2023/03/16 00:01:03;;;;;;;48.78;45.58;;;;;;;-1.20;86.45;98783.38;5030723;28;20411;-73
2023/03/16 00:03:29;;;;;;;48.85;45.65;;;;;;;-1.28;86.67;98784.16;5010402;28;20041;-73
2023/03/16 00:05:54;;;;;;;48.53;45.33;;;;;;;-1.23;86.51;98783.69;5004696;28;20473;-73
2023/03/16 00:08:19;;;;;;;50.75;47.33;;;;;;;-1.20;86.79;98786.03;5012091;28;20041;-73
2023/03/16 00:10:46;;;;;;;52.20;48.72;;;;;;;-1.23;87.13;98786.31;5010937;28;20068;-74
2023/03/16 00:13:16;;;;;;;52.70;49.10;;;;;;;-1.42;86.99;98788.19;4994397;28;20042;-74
2023/03/16 00:15:58;;;;;;;50.72;47.20;;;;;;;-1.34;86.90;98794.50;5010884;28;20033;-75
2023/03/16 00:18:27;;;;;;;52.92;49.38;;;;;;;-1.36;86.64;98791.19;4999112;28;20042;-74
2023/03/16 00:20:55;;;;;;;50.17;46.78;;;;;;;-1.34;86.75;98789.22;5010829;28;20033;-74
2023/03/16 00:23:27;;;;;;;48.75;45.58;;;;;;;-1.18;87.28;98791.97;5010777;28;20030;-74
2023/03/16 00:26:01;;;;;;;48.58;45.35;;;;;;;-1.03;87.21;98787.78;4994976;28;20117;-73
2023/03/16 00:28:29;;;;;;;52.40;49.00;;;;;;;-1.05;87.49;98776.53;5010845;28;20448;-73
2023/03/16 00:30:58;;;;;;;47.47;44.65;;;;;;;-1.07;86.89;98783.78;4994719;28;20022;-73
2023/03/16 00:33:24;;;;;;;51.20;47.90;;;;;;;-1.04;86.31;98778.19;4978448;28;20133;-73
2023/03/16 00:35:49;;;;;;;52.30;48.97;;;;;;;-1.12;86.74;98786.09;4978008;28;20029;-73
2023/03/16 00:38:16;;;;;;;51.78;48.38;;;;;;;-1.23;86.70;98773.94;4994270;28;20551;-74
2023/03/16 00:40:42;;;;;;;50.25;46.85;;;;;;;-1.42;87.86;98766.22;4994302;28;20072;-74
2023/03/16 00:43:08;;;;;;;49.83;46.33;;;;;;;-1.43;86.72;98775.97;4978225;28;20038;-75
2023/03/16 00:45:35;;;;;;;46.85;43.47;;;;;;;-1.44;86.34;98774.31;4994190;28;20022;-74
2023/03/16 00:48:00;;;;;;;48.33;45.13;;;;;;;-1.41;86.63;98762.63;5010372;28;20033;-73
2023/03/16 00:50:26;;;;;;;47.42;44.22;;;;;;;-1.40;86.45;98775.66;4991190;28;20034;-73
2023/03/16 00:52:52;;;;;;;48.00;44.72;;;;;;;-1.77;87.02;98775.03;4994276;28;20413;-73
2023/03/16 00:55:18;;;;;;;46.90;43.70;;;;;;;-1.75;86.00;98775.72;5010868;28;20032;-74
2023/03/16 00:57:44;;;;;;;48.45;45.30;;;;;;;-1.65;85.97;98781.75;5010672;28;20033;-73
2023/03/16 01:00:15;;;;;;;45.83;42.72;;;;;;;-1.66;85.93;98784.56;5011744;28;20026;-73
2023/03/16 01:02:44;;;;;;;46.90;44.00;;;;;;;-1.62;85.74;98776.16;4994951;28;20473;-73
2023/03/16 01:05:11;;;;;;;46.58;43.58;;;;;;;-1.60;85.13;98784.75;4994016;28;20446;-73
2023/03/16 01:07:40;;;;;;;48.03;44.85;;;;;;;-1.66;85.23;98788.03;4994242;28;20038;-72
2023/03/16 01:10:07;;;;;;;44.22;41.42;;;;;;;-1.78;85.10;98777.84;4994111;28;20030;-72
2023/03/16 01:12:32;;;;;;;45.22;42.03;;;;;;;-1.83;85.28;98778.31;5010255;28;20034;-72
2023/03/16 01:14:58;;;;;;;48.05;44.95;;;;;;;-1.79;85.99;98777.00;5012942;28;20036;-72
2023/03/16 01:17:25;;;;;;;45.15;42.15;;;;;;;-1.77;85.70;98772.41;5015525;28;20030;-72
2023/03/16 01:19:51;;;;;;;46.65;43.55;;;;;;;-1.87;85.93;98766.41;4994439;28;20069;-72
2023/03/16 01:22:16;;;;;;;45.33;42.15;;;;;;;-1.85;86.40;98780.28;5007197;28;20069;-72
2023/03/16 01:24:45;;;;;;;45.97;42.55;;;;;;;-1.84;86.84;98771.34;4997240;28;20029;-72
2023/03/16 01:27:11;;;;;;;43.72;40.92;;;;;;;-1.84;85.92;98771.34;5013888;28;20128;-72
2023/03/16 01:29:38;;;;;;;42.05;38.88;;;;;;;-2.03;85.82;98760.97;4997480;28;20034;-72
2023/03/16 01:32:06;;;;;;;42.88;39.90;;;;;;;-1.95;85.42;98771.59;4997305;28;20409;-72
2023/03/16 01:34:32;;;;;;;44.22;41.03;;;;;;;-1.92;86.42;98768.66;4997015;28;20021;-72
2023/03/16 01:36:58;;;;;;;46.63;43.10;;;;;;;-1.95;87.46;98768.13;5013605;28;20052;-72
2023/03/16 01:39:28;;;;;;;46.90;43.42;;;;;;;-1.90;86.27;98771.97;4997971;28;20029;-72
2023/03/16 01:41:54;;;;;;;45.78;42.58;;;;;;;-1.95;86.61;98768.97;4997208;28;20030;-73
2023/03/16 01:44:29;;;;;;;43.67;40.63;;;;;;;-2.02;85.50;98772.34;5013308;28;20392;-73
2023/03/16 01:46:56;;;;;;;43.83;40.72;;;;;;;-1.94;84.62;98770.63;4981573;28;20040;-73
2023/03/16 01:49:27;;;;;;;46.47;43.30;;;;;;;-2.00;85.03;98776.50;4997173;28;20030;-72
2023/03/16 01:52:03;;;;;;;45.47;42.47;;;;;;;-2.06;85.23;98777.09;5013354;28;20037;-72
2023/03/16 01:54:43;;;;;;;41.30;38.55;;;;;;;-2.04;85.18;98775.16;4996975;28;20037;-72
2023/03/16 01:57:35;;;;;;;42.00;39.40;;;;;;;-1.99;84.67;98772.88;4996933;28;20030;-72
2023/03/16 02:00:09;;;;;;;40.15;37.35;;;;;;;-2.00;84.15;98768.56;4979740;28;20124;-72
2023/03/16 02:02:42;;;;;;;40.88;38.25;;;;;;;-2.08;84.03;98762.41;5013438;28;20041;-72
2023/03/16 02:05:15;;;;;;;43.53;40.58;;;;;;;-2.19;84.73;98761.63;4993482;28;20535;-72
2023/03/16 02:07:45;;;;;;;41.55;38.83;;;;;;;-2.13;84.76;98770.78;4996778;28;20026;-71
2023/03/16 02:10:13;;;;;;;42.83;39.83;;;;;;;-2.13;85.10;98765.50;4996729;28;20034;-71
2023/03/16 02:12:38;;;;;;;42.00;39.28;;;;;;;-2.18;84.81;98767.75;4996487;28;20038;-72
2023/03/16 02:15:05;;;;;;;41.60;38.90;;;;;;;-2.25;84.82;98756.16;4983331;28;20404;-72
2023/03/16 02:17:33;;;;;;;38.13;35.33;;;;;;;-2.44;85.74;98756.28;5012946;28;20454;-72
2023/03/16 02:20:24;;;;;;;40.15;37.35;;;;;;;-2.44;85.51;98762.38;4981683;28;20051;-72
2023/03/16 02:22:53;;;;;;;42.53;39.83;;;;;;;-2.30;86.04;98753.97;5012693;28;20041;-72
2023/03/16 02:25:43;;;;;;;41.92;38.78;;;;;;;-2.28;84.68;98756.44;4995638;28;20038;-72
2023/03/16 02:28:30;;;;;;;44.47;41.38;;;;;;;-2.21;85.00;98762.78;4996326;28;20030;-73
2023/03/16 02:30:56;;;;;;;45.55;42.45;;;;;;;-2.29;85.24;98760.06;4996232;28;20121;-71
2023/03/16 02:33:21;;;;;;;44.08;40.90;;;;;;;-2.31;84.73;98749.66;5013541;28;20148;-72
2023/03/16 02:35:48;;;;;;;45.40;42.40;;;;;;;-2.38;85.28;98756.50;4996400;28;20034;-73
2023/03/16 02:38:14;;;;;;;43.15;40.45;;;;;;;-2.42;84.60;98756.94;5013765;28;20026;-72
2023/03/16 02:40:56;;;;;;;45.03;41.90;;;;;;;-2.43;85.51;98750.03;4997008;28;20037;-72
2023/03/16 02:43:25;;;;;;;42.30;38.97;;;;;;;-2.44;85.35;98751.84;4995879;28;20120;-72
2023/03/16 02:46:03;;;;;;;44.30;41.15;;;;;;;-2.35;84.69;98734.28;4997424;28;20469;-72
2023/03/16 02:48:48;;;;;;;46.65;43.35;;;;;;;-2.34;85.61;98733.31;4996077;28;20141;-72
2023/03/16 02:51:14;;;;;;;52.72;48.42;;;;;;;-2.34;86.13;98731.50;4979755;28;20113;-73
2023/03/16 02:53:39;;;;;;;54.25;49.75;;;;;;;-2.36;87.17;98724.72;4995424;28;20532;-73
2023/03/16 02:56:05;;;;;;;51.72;48.03;;;;;;;-2.26;86.98;98734.22;4995958;28;20425;-73
2023/03/16 02:58:33;;;;;;;54.25;49.80;;;;;;;-2.11;87.02;98731.88;4996093;28;20112;-73
2023/03/16 03:01:02;;;;;;;57.60;51.92;;;;;;;-2.45;87.02;98739.63;4996281;28;20037;-73
2023/03/16 03:03:28;;;;;;;57.47;52.08;;;;;;;-2.27;87.13;98739.66;4995547;28;20046;-72
2023/03/16 03:05:54;;;;;;;68.10;56.55;;;;;;;-2.57;87.56;98738.19;4995643;28;20034;-72
2023/03/16 03:08:21;;;;;;;58.83;45.88;;;;;;;-2.49;87.10;98745.34;4995531;28;20469;-72
2023/03/16 03:10:46;;;;;;;50.35;46.20;;;;;;;-2.50;86.21;98748.97;4995719;28;20030;-72
2023/03/16 03:13:12;;;;;;;77.43;62.50;;;;;;;-2.76;86.88;98746.22;4995175;28;20367;-72
2023/03/16 03:15:39;;;;;;;50.95;46.85;;;;;;;-2.59;87.30;98747.22;5011731;28;20030;-72
2023/03/16 03:18:08;;;;;;;51.30;47.05;;;;;;;-2.61;86.96;98757.09;4996006;28;20048;-72
2023/03/16 03:20:33;;;;;;;94.10;47.60;;;;;;;-2.83;87.13;98748.63;5011726;28;20081;-72
2023/03/16 03:22:59;;;;;;;55.05;49.88;;;;;;;-2.74;87.78;98753.97;5011253;28;20473;-71
2023/03/16 03:25:24;;;;;;;51.75;46.55;;;;;;;-3.05;87.95;98756.06;4995276;28;20528;-71
2023/03/16 03:27:53;;;;;;;56.17;50.97;;;;;;;-2.86;87.31;98759.44;5011561;28;20022;-71
2023/03/16 03:30:21;;;;;;;56.70;51.80;;;;;;;-3.19;88.49;98749.47;4995372;28;20527;-72
2023/03/16 03:32:47;;;;;;;52.47;48.22;;;;;;;-3.23;87.79;98750.72;4995188;28;20049;-74
2023/03/16 03:35:13;;;;;;;54.30;48.45;;;;;;;-3.25;88.67;98760.59;4994834;28;20034;-74
2023/03/16 03:37:41;;;;;;;156.18;88.78;;;;;;;-3.06;87.60;98759.69;5012723;28;20030;-74
2023/03/16 03:40:10;;;;;;;51.38;47.25;;;;;;;-2.99;86.56;98760.75;4979102;28;20489;-73
2023/03/16 03:42:36;;;;;;;60.17;54.80;;;;;;;-2.94;86.23;98763.78;4995084;28;20025;-74
2023/03/16 03:45:04;;;;;;;63.38;57.50;;;;;;;-3.07;85.96;98763.28;5011087;28;20049;-73
2023/03/16 03:47:29;;;;;;;57.25;52.13;;;;;;;-3.18;86.14;98751.13;4994777;28;20026;-74
2023/03/16 03:49:55;;;;;;;58.70;53.42;;;;;;;-3.09;86.33;98762.59;4979075;28;20034;-74
2023/03/16 03:52:21;;;;;;;55.38;50.50;;;;;;;-3.06;86.46;98752.59;4994909;28;20080;-74
2023/03/16 03:54:47;;;;;;;48.70;44.58;;;;;;;-2.99;85.54;98750.22;5010901;28;20493;-74
2023/03/16 03:57:15;;;;;;;43.45;39.90;;;;;;;-2.95;85.01;98749.78;5011187;28;20052;-75
2023/03/16 03:59:43;;;;;;;51.47;47.45;;;;;;;-2.99;84.86;98743.13;4994801;28;20034;-73
2023/03/16 04:02:24;;;;;;;55.03;51.00;;;;;;;-2.84;85.03;98735.56;5000049;28;20061;-73
2023/03/16 04:04:52;;;;;;;47.15;43.03;;;;;;;-3.02;85.23;98734.69;5012091;28;20374;-73
2023/03/16 04:07:18;;;;;;;43.22;39.22;;;;;;;-2.96;84.27;98734.09;5010940;28;20036;-74
2023/03/16 04:09:44;;;;;;;49.53;45.35;;;;;;;-3.16;85.58;98730.75;4994752;28;20037;-75
2023/03/16 04:12:19;;;;;;;36.90;34.05;;;;;;;-2.99;84.68;98740.50;4981096;28;20026;-76
2023/03/16 04:14:45;;;;;;;46.53;43.15;;;;;;;-3.02;84.39;98732.91;4994503;28;20034;-75
2023/03/16 04:17:11;;;;;;;46.17;42.55;;;;;;;-3.19;85.65;98733.66;4994636;28;20026;-74
2023/03/16 04:19:38;;;;;;;41.25;37.63;;;;;;;-3.02;85.14;98750.50;5020696;28;20485;-74
2023/03/16 04:22:08;;;;;;;40.05;36.55;;;;;;;-3.21;84.90;98740.88;4979367;28;20030;-74
2023/03/16 04:24:34;;;;;;;41.05;37.75;;;;;;;-3.27;85.55;98741.47;5010426;28;20512;-74
2023/03/16 04:27:01;;;;;;;40.35;36.95;;;;;;;-3.14;84.79;98747.22;5010623;28;20030;-73
2023/03/16 04:29:27;;;;;;;48.13;44.22;;;;;;;-3.46;85.20;98736.25;5010572;28;20144;-73
2023/03/16 04:31:55;;;;;;;41.22;37.90;;;;;;;-3.17;85.60;98736.13;4994631;28;20034;-73
2023/03/16 04:34:23;;;;;;;45.38;41.90;;;;;;;-3.14;85.02;98736.69;5010300;28;20437;-73
2023/03/16 04:36:53;;;;;;;43.03;39.72;;;;;;;-3.15;84.78;98734.22;5010520;28;20378;-73
2023/03/16 04:39:19;;;;;;;45.70;42.35;;;;;;;-3.13;84.12;98742.78;5010597;28;20041;-73
2023/03/16 04:41:45;;;;;;;40.58;36.85;;;;;;;-3.18;84.47;98739.75;4994147;28;20025;-73
2023/03/16 04:44:17;;;;;;;47.22;43.45;;;;;;;-3.21;83.76;98730.34;4997905;28;20034;-75
2023/03/16 04:46:43;;;;;;;45.53;40.97;;;;;;;-3.28;83.72;98739.78;4994052;28;20037;-75
2023/03/16 04:49:09;;;;;;;45.13;41.28;;;;;;;-3.22;84.36;98733.94;4996312;28;20026;-74
2023/03/16 04:51:36;;;;;;;40.42;36.45;;;;;;;-3.25;84.09;98734.25;4982118;28;20040;-75
2023/03/16 04:54:07;;;;;;;44.63;40.92;;;;;;;-3.21;84.46;98740.88;4998679;28;20037;-74
2023/03/16 04:56:40;;;;;;;39.95;36.10;;;;;;;-3.24;84.65;98741.16;4980794;28;20283;-74
2023/03/16 04:59:08;;;;;;;43.50;40.10;;;;;;;-3.17;84.07;98742.25;5014393;28;20053;-74
2023/03/16 05:01:45;;;;;;;46.55;42.95;;;;;;;-3.33;84.08;98739.38;5014401;28;20041;-74
2023/03/16 05:04:12;;;;;;;36.50;33.22;;;;;;;-3.43;84.72;98732.50;5014125;28;20084;-73
2023/03/16 05:06:38;;;;;;;35.50;31.88;;;;;;;-3.48;84.50;98727.69;5014100;28;20051;-74
2023/03/16 05:09:07;;;;;;;36.92;33.42;;;;;;;-3.39;84.50;98731.25;5014254;28;20037;-74
2023/03/16 05:11:35;;;;;;;43.95;40.15;;;;;;;-3.38;83.53;98728.47;4998362;28;20068;-74
2023/03/16 05:14:02;;;;;;;49.33;42.30;;;;;;;-3.39;84.14;98710.19;4997843;28;20088;-74
2023/03/16 05:16:30;;;;;;;43.58;38.08;;;;;;;-3.35;83.41;98728.19;4998060;28;20022;-72
2023/03/16 05:18:59;;;;;;;48.63;38.70;;;;;;;-3.38;83.40;98723.19;4997757;28;20037;-72
2023/03/16 05:21:30;;;;;;;44.97;39.90;;;;;;;-3.49;84.40;98726.00;4997845;28;20071;-72
2023/03/16 05:24:00;;;;;;;50.30;44.90;;;;;;;-3.37;84.01;98718.75;4998223;28;20042;-72
2023/03/16 05:26:25;;;;;;;47.30;38.67;;;;;;;-3.60;85.19;98724.38;4997390;28;20057;-73
2023/03/16 05:28:51;;;;;;;48.85;43.83;;;;;;;-3.44;84.96;98728.22;4997448;28;20083;-72
2023/03/16 05:31:22;;;;;;;42.38;37.83;;;;;;;-3.35;84.06;98724.72;4982716;28;20107;-72
2023/03/16 05:33:52;;;;;;;41.83;37.38;;;;;;;-3.33;83.82;98730.66;5013252;28;20042;-73
2023/03/16 05:36:19;;;;;;;39.55;35.65;;;;;;;-3.35;83.55;98728.19;5013641;28;20037;-73
2023/03/16 05:38:47;;;;;;;46.08;41.95;;;;;;;-3.36;83.59;98736.22;4981662;28;20022;-75
2023/03/16 05:41:22;;;;;;;44.05;36.65;;;;;;;-3.41;83.78;98722.66;5013423;28;20030;-73
2023/03/16 05:43:56;;;;;;;42.55;37.92;;;;;;;-3.35;83.34;98712.38;4997946;28;20125;-73
2023/03/16 05:46:25;;;;;;;45.95;41.65;;;;;;;-3.34;83.82;98729.84;5013381;28;20034;-73
2023/03/16 05:48:51;;;;;;;39.78;33.60;;;;;;;-3.39;83.65;98733.88;4996994;28;20390;-73
2023/03/16 05:51:18;;;;;;;42.10;37.80;;;;;;;-3.29;83.06;98724.94;5013387;28;20052;-72
2023/03/16 05:53:45;;;;;;;36.45;32.75;;;;;;;-3.46;83.79;98720.47;4996500;28;20030;-73
2023/03/16 05:56:19;;;;;;;40.50;37.03;;;;;;;-3.52;84.09;98726.28;5037512;23;20050;-76
2023/03/16 05:58:45;;;;;;;35.30;31.48;;;;;;;-3.39;83.90;98723.34;5012245;28;20165;-75
2023/03/16 06:01:12;;;;;;;38.85;35.45;;;;;;;-3.31;83.47;98729.53;5012432;28;20068;-74
2023/03/16 06:03:38;;;;;;;41.20;37.90;;;;;;;-3.26;83.29;98735.22;5008537;28;20030;-76
2023/03/16 06:06:06;;;;;;;34.88;31.83;;;;;;;-3.23;84.51;98727.03;5003313;28;20499;-75
2023/03/16 06:08:39;;;;;;;40.63;37.45;;;;;;;-3.24;83.86;98730.63;4991807;28;20034;-76
2023/03/16 06:11:08;;;;;;;36.22;32.90;;;;;;;-3.13;83.94;98722.56;4990451;28;20038;-76
2023/03/16 06:13:34;;;;;;;42.97;39.72;;;;;;;-2.92;83.33;98730.22;4963796;28;20035;-76
2023/03/16 06:16:00;;;;;;;37.22;33.78;;;;;;;-2.98;83.82;98736.88;4991445;28;20121;-75
2023/03/16 06:18:26;;;;;;;46.88;43.08;;;;;;;-2.84;83.63;98731.13;4991702;28;20026;-76
2023/03/16 06:20:51;;;;;;;44.85;40.50;;;;;;;-2.76;84.57;98734.84;4975673;28;20097;-75
2023/03/16 06:23:19;;;;;;;56.08;51.45;;;;;;;-2.75;85.10;98736.50;4992984;28;20026;-75
2023/03/16 06:25:48;;;;;;;44.88;40.78;;;;;;;-2.78;84.30;98743.69;4977222;28;20038;-74
2023/03/16 06:28:15;;;;;;;44.53;41.00;;;;;;;-2.81;84.87;98746.66;4977235;28;20127;-74
2023/03/16 06:30:41;;;;;;;46.65;43.05;;;;;;;-2.61;84.73;98747.34;4993145;28;20074;-76
2023/03/16 06:33:07;;;;;;;37.92;34.83;;;;;;;-2.55;84.58;98745.94;4993018;28;20100;-76
2023/03/16 06:35:32;;;;;;;43.90;40.45;;;;;;;-2.38;84.41;98745.94;4993068;28;20439;-76
2023/03/16 06:38:18;;;;;;;59.38;54.15;;;;;;;-2.18;84.12;98741.38;4992746;28;20088;-76
2023/03/16 06:40:54;;;;;;;53.15;47.45;;;;;;;-1.97;84.12;98748.97;4973660;28;20042;-76
2023/03/16 06:43:20;;;;;;;60.90;54.53;;;;;;;-1.85;83.68;98753.03;4976813;28;20037;-76
2023/03/16 06:45:46;;;;;;;62.90;57.30;;;;;;;-1.83;83.86;98746.63;4976677;28;20397;-76
2023/03/16 06:48:13;;;;;;;60.55;55.15;;;;;;;-1.70;83.63;98749.69;4992879;28;20026;-75
2023/03/16 06:50:38;;;;;;;49.72;44.65;;;;;;;-1.81;83.85;98751.75;4976725;28;20030;-77
2023/03/16 06:53:04;;;;;;;61.60;56.03;;;;;;;-1.99;84.38;98741.22;4983583;28;20031;-76
2023/03/16 06:55:31;;;;;;;56.25;51.35;;;;;;;-2.09;85.76;98745.75;4992434;28;20026;-77
2023/03/16 06:57:58;;;;;;;55.55;50.67;;;;;;;-1.74;84.91;98756.25;4992817;28;20030;-77
2023/03/16 07:00:24;;;;;;;55.42;51.00;;;;;;;-1.88;85.58;98748.91;4993935;28;20029;-76
2023/03/16 07:02:50;;;;;;;51.08;46.30;;;;;;;-1.78;85.31;98757.56;4976504;28;20043;-76
2023/03/16 07:05:15;;;;;;;63.15;57.67;;;;;;;-1.74;86.08;98761.53;4992381;28;20025;-76
2023/03/16 07:07:42;;;;;;;54.72;50.40;;;;;;;-1.62;85.07;98754.22;4992411;28;20116;-76
2023/03/16 07:10:18;;;;;;;51.45;47.55;;;;;;;-1.62;85.01;98754.22;4992464;28;20121;-75
2023/03/16 07:12:44;;;;;;;50.30;46.60;;;;;;;-1.64;85.56;98751.72;4992115;28;20030;-74
2023/03/16 07:15:10;;;;;;;48.50;45.00;;;;;;;-1.47;85.79;98757.97;5000765;28;20096;-75
2023/03/16 07:17:36;;;;;;;52.47;48.58;;;;;;;-1.39;85.20;98752.72;4997511;28;20026;-76
2023/03/16 07:20:04;;;;;;;47.90;44.42;;;;;;;-1.09;84.80;98748.75;4991817;28;20019;-76
2023/03/16 07:22:31;;;;;;;50.25;46.55;;;;;;;-1.21;85.00;98755.31;4975526;28;20029;-77
2023/03/16 07:24:58;;;;;;;48.75;45.08;;;;;;;-1.15;85.09;98757.31;4971158;28;20497;-76
2023/03/16 07:27:25;;;;;;;44.30;41.20;;;;;;;-1.00;84.71;98755.72;4986266;28;20034;-76
2023/03/16 07:29:51;;;;;;;52.70;48.95;;;;;;;-0.83;84.75;98753.03;4992099;28;20253;-76
2023/03/16 07:32:18;;;;;;;50.90;47.20;;;;;;;-0.85;84.79;98764.75;4991729;28;20061;-76
2023/03/16 07:34:44;;;;;;;48.00;44.40;;;;;;;-0.88;85.99;98754.47;4990479;28;20026;-76
2023/03/16 07:37:10;;;;;;;51.13;47.33;;;;;;;-0.72;85.55;98754.53;4960181;28;20080;-75
2023/03/16 07:39:36;;;;;;;50.30;46.55;;;;;;;-0.66;85.81;98753.06;4993208;28;20658;-77
2023/03/16 07:42:07;;;;;;;47.70;44.28;;;;;;;-0.59;86.34;98754.94;4977262;28;20041;-76
2023/03/16 07:44:44;;;;;;;46.85;43.45;;;;;;;-0.64;86.08;98751.94;4991975;28;20034;-76
2023/03/16 07:47:13;;;;;;;46.05;42.97;;;;;;;-0.55;86.10;98761.53;4976202;28;20026;-75
2023/03/16 07:49:41;;;;;;;48.45;44.95;;;;;;;-0.49;86.67;98755.59;4993084;28;20113;-76
2023/03/16 07:52:06;;;;;;;47.10;43.97;;;;;;;-0.41;85.65;98763.56;4975503;28;20121;-76
2023/03/16 07:54:37;;;;;;;51.05;47.55;;;;;;;-0.36;86.20;98766.56;4960551;28;20036;-76
2023/03/16 07:57:05;;;;;;;49.95;46.28;;;;;;;-0.30;86.42;98770.38;4991735;28;20034;-76
2023/03/16 07:59:40;;;;;;;53.72;50.03;;;;;;;-0.11;86.06;98770.91;4977068;28;20029;-77
2023/03/16 08:02:15;;;;;;;51.45;47.85;;;;;;;-0.30;87.01;98759.78;4992358;28;20039;-76
2023/03/16 08:04:41;;;;;;;52.65;48.85;;;;;;;-0.07;86.90;98759.00;4991126;28;20418;-77
2023/03/16 08:07:12;;;;;;;54.95;50.85;;;;;;;-0.12;86.86;98763.97;4975282;28;20026;-77
2023/03/16 08:09:50;;;;;;;55.15;51.25;;;;;;;0.08;86.46;98768.94;4976988;28;20092;-76
2023/03/16 08:12:20;;;;;;;52.25;48.85;;;;;;;0.12;85.88;98775.59;4991203;28;20034;-76
2023/03/16 08:14:46;;;;;;;52.85;49.22;;;;;;;0.48;85.49;98779.56;4973766;28;20038;-77
2023/03/16 08:17:16;;;;;;;49.85;46.95;;;;;;;0.24;82.75;98774.25;4968895;28;20106;-79
2023/03/16 08:19:43;;;;;;;49.53;46.15;;;;;;;0.26;86.11;98777.56;4975052;28;20030;-76
2023/03/16 08:22:09;;;;;;;52.70;49.38;;;;;;;0.19;85.43;98769.44;4987621;28;20106;-76
2023/03/16 08:24:41;;;;;;;54.25;50.65;;;;;;;0.09;85.31;98765.31;4973647;28;20034;-76
2023/03/16 08:27:09;;;;;;;53.92;50.47;;;;;;;0.47;85.75;98764.66;4975486;28;20034;-76
2023/03/16 08:29:37;;;;;;;55.33;51.78;;;;;;;0.46;86.43;98760.34;4963507;28;20081;-76
2023/03/16 08:32:05;;;;;;;54.47;51.05;;;;;;;0.43;85.07;98753.56;4973236;28;20130;-76
2023/03/16 08:34:38;;;;;;;52.80;49.45;;;;;;;0.56;83.68;98753.06;4995528;28;20105;-77
2023/03/16 08:37:05;;;;;;;52.15;48.95;;;;;;;0.70;83.89;98757.69;4991019;28;20037;-76
2023/03/16 08:39:32;;;;;;;48.88;45.83;;;;;;;0.78;83.53;98756.81;4990967;28;20109;-76
2023/03/16 08:41:58;;;;;;;44.85;42.05;;;;;;;0.78;83.01;98757.66;4975194;28;20032;-76
2023/03/16 08:44:32;;;;;;;43.65;40.90;;;;;;;1.02;82.54;98749.66;4990879;28;20073;-77
2023/03/16 08:46:58;;;;;;;45.38;42.53;;;;;;;1.12;84.63;98758.22;4974782;28;20042;-76
2023/03/16 08:49:26;;;;;;;43.72;40.97;;;;;;;1.08;84.26;98748.13;4987714;28;20023;-77
2023/03/16 08:51:59;;;;;;;43.33;40.70;;;;;;;1.24;83.04;98759.50;4989094;28;20394;-76
2023/03/16 08:54:25;;;;;;;46.58;44.03;;;;;;;1.55;84.05;98761.38;4990618;28;20043;-78
2023/03/16 08:56:50;;;;;;;46.13;43.33;;;;;;;1.50;82.09;98761.06;4990880;28;20077;-77
2023/03/16 08:59:16;;;;;;;42.42;40.03;;;;;;;1.51;82.05;98762.72;5007368;28;20598;-76
2023/03/16 09:01:41;;;;;;;45.67;42.95;;;;;;;1.34;84.05;98770.75;4992092;28;20038;-76
2023/03/16 09:04:06;;;;;;;50.05;47.00;;;;;;;1.45;84.46;98768.72;4974497;28;20130;-77
2023/03/16 09:09:57;;;;;;;50.08;47.10;;;;;;;1.73;84.95;98756.63;4990258;28;20041;-76
2023/03/16 09:12:23;;;;;;;51.75;48.83;;;;;;;1.71;84.14;98750.66;4994610;28;20030;-76
2023/03/16 09:14:48;;;;;;;51.25;48.13;;;;;;;1.48;84.59;98733.88;4991787;28;20698;-77
2023/03/16 09:17:13;;;;;;;52.83;49.80;;;;;;;1.87;82.10;98746.06;4990818;28;20558;-76
2023/03/16 09:19:39;;;;;;;52.15;48.97;;;;;;;2.10;82.94;98743.44;4990774;28;20042;-77
2023/03/16 09:22:05;;;;;;;47.67;44.75;;;;;;;2.14;82.09;98747.41;4974602;28;20692;-76
2023/03/16 09:24:31;;;;;;;47.42;44.72;;;;;;;2.18;82.11;98748.69;4990527;28;20046;-77
2023/03/16 09:26:56;;;;;;;40.28;37.92;;;;;;;2.43;81.89;98747.47;4990632;28;20030;-77
2023/03/16 09:29:22;;;;;;;20.35;19.08;;;;;;;2.52;76.17;98735.75;4990662;28;20050;-76
2023/03/16 09:31:48;;;;;;;15.85;14.52;;;;;;;2.85;73.40;98738.13;4990692;28;20611;-77
2023/03/16 09:34:14;;;;;;;13.68;12.57;;;;;;;3.10;76.92;98739.50;4974567;28;20034;-77
2023/03/16 09:36:39;;;;;;;14.73;13.52;;;;;;;3.21;75.93;98736.38;4995401;28;20425;-77
2023/03/16 09:39:05;;;;;;;11.00;10.10;;;;;;;3.26;73.11;98728.69;4978044;28;20125;-76
2023/03/16 09:41:44;;;;;;;6.45;5.85;;;;;;;3.36;72.45;98730.03;4994298;28;20026;-77
2023/03/16 09:45:14;;;;;;;5.10;4.30;;;;;;;3.19;69.66;98735.75;4977757;28;20041;-77
2023/03/16 09:47:40;;;;;;;6.95;4.60;;;;;;;3.53;71.18;98725.31;4955404;28;20054;-77
2023/03/16 09:50:13;;;;;;;5.40;4.90;;;;;;;3.63;71.16;98731.19;5010400;28;20398;-77
2023/03/16 09:53:09;;;;;;;5.07;4.57;;;;;;;3.57;70.86;98721.25;4992858;28;20069;-77
2023/03/16 10:05:11;;;;;;;5.72;4.05;;;;;;;4.38;67.93;98728.06;4993561;28;20556;-76
2023/03/16 10:07:58;;;;;;;4.32;4.00;;;;;;;4.28;70.41;98730.22;4977402;28;20039;-77
2023/03/16 10:10:46;;;;;;;5.30;2.92;;;;;;;4.22;66.29;98727.28;4986468;28;20478;-77
2023/03/16 10:13:33;;;;;;;8.65;3.78;;;;;;;4.40;67.70;98723.34;4969253;28;20064;-77
2023/03/16 10:16:01;;;;;;;4.88;3.13;;;;;;;4.38;66.16;98714.72;5009842;28;20042;-77
2023/03/16 10:18:35;;;;;;;5.57;3.70;;;;;;;4.38;67.60;98717.38;5009939;28;20022;-77
2023/03/16 10:21:01;;;;;;;6.55;3.85;;;;;;;4.39;67.68;98711.06;4977248;28;20489;-78
2023/03/16 10:23:34;;;;;;;5.28;3.70;;;;;;;4.44;69.27;98708.59;5009682;28;20045;-76
2023/03/16 10:26:00;;;;;;;8.93;4.30;;;;;;;4.36;67.72;98701.59;4993477;28;20065;-77
2023/03/16 10:28:27;;;;;;;9.02;4.28;;;;;;;4.67;67.81;98694.03;4993299;28;20023;-77
2023/03/16 10:30:54;;;;;;;6.05;3.78;;;;;;;4.70;66.33;98696.31;4993140;28;20045;-77
2023/03/16 10:33:28;;;;;;;3.88;3.10;;;;;;;4.61;66.00;98693.97;4993070;28;20100;-76
2023/03/16 10:36:10;;;;;;;9.52;3.30;;;;;;;4.82;67.93;98691.25;4993109;28;20508;-77
2023/03/16 10:38:38;;;;;;;3.30;3.00;;;;;;;4.59;64.77;98696.03;4993148;28;20138;-77
2023/03/16 10:41:16;;;;;;;4.53;2.78;;;;;;;4.66;65.09;98694.22;4976901;28;20500;-77
2023/03/16 10:43:41;;;;;;;4.95;3.08;;;;;;;4.66;66.35;98686.22;4994423;28;20046;-76
2023/03/16 10:46:10;;;;;;;3.97;3.45;;;;;;;5.20;67.53;98687.16;4992903;28;20022;-76
2023/03/16 10:48:36;;;;;;;5.00;3.30;;;;;;;5.03;67.76;98683.16;4994651;28;20058;-77
2023/03/16 10:51:06;;;;;;;5.82;2.92;;;;;;;4.99;64.56;98692.59;4993936;28;20085;-76
2023/03/16 10:53:34;;;;;;;3.60;2.83;;;;;;;5.21;64.50;98675.44;4976702;28;20037;-77
2023/03/16 10:56:08;;;;;;;4.55;3.05;;;;;;;5.47;64.86;98691.59;4992555;28;20109;-77
2023/03/16 10:58:34;;;;;;;6.43;3.22;;;;;;;5.37;64.35;98691.13;5008996;28;20034;-77
2023/03/16 11:01:00;;;;;;;4.53;3.33;;;;;;;5.50;63.97;98685.84;5008917;28;20114;-77
2023/03/16 11:03:37;;;;;;;4.60;2.90;;;;;;;5.11;65.86;98688.34;4992400;28;20057;-77
2023/03/16 11:06:05;;;;;;;4.70;3.08;;;;;;;5.30;63.25;98684.09;5008897;28;20536;-77
2023/03/16 11:08:38;;;;;;;5.38;3.30;;;;;;;5.44;63.75;98681.31;4992564;28;20034;-77
2023/03/16 11:11:12;;;;;;;3.63;3.17;;;;;;;5.29;64.93;98691.31;5008686;28;20041;-76
2023/03/16 11:13:37;;;;;;;5.70;3.45;;;;;;;5.30;64.92;98679.59;4960184;28;20084;-77
2023/03/16 11:16:30;;;;;;;5.13;3.22;;;;;;;5.50;63.80;98690.38;4992184;28;20446;-76
2023/03/16 11:19:03;;;;;;;5.55;3.30;;;;;;;5.22;64.00;98693.13;4974357;28;20054;-77
2023/03/16 11:22:07;;;;;;;4.05;3.30;;;;;;;5.27;63.35;98685.34;4992855;28;20034;-77
2023/03/16 11:24:51;;;;;;;5.60;2.80;;;;;;;5.58;62.57;98687.50;4991884;28;20038;-77
2023/03/16 11:27:45;;;;;;;6.35;3.50;;;;;;;5.74;64.28;98681.00;4993311;28;20034;-76
2023/03/16 11:30:22;;;;;;;6.55;3.58;;;;;;;5.70;64.15;98675.22;4938764;28;20047;-76
2023/03/16 11:32:49;;;;;;;6.95;3.78;;;;;;;5.81;63.79;98677.28;4958842;28;20038;-77
2023/03/16 11:35:37;;;;;;;5.15;4.15;;;;;;;6.04;65.16;98674.31;4991836;28;20022;-76
2023/03/16 11:38:28;;;;;;;5.00;3.58;;;;;;;5.76;64.02;98660.25;4965026;28;20564;-77
2023/03/16 11:41:39;;;;;;;4.93;3.85;;;;;;;5.75;63.64;98666.59;4993118;28;20030;-74
2023/03/16 11:44:15;;;;;;;5.00;3.30;;;;;;;6.10;63.71;98652.91;4975702;28;20056;-74
2023/03/16 11:46:53;;;;;;;4.75;3.05;;;;;;;5.96;60.99;98659.28;5008300;28;20038;-77